sensor_id;sensor_type;location;lat;lon;timestamp;P1;durP1;ratioP1;P2;durP2;ratioP2
55641;SDS011;41509;53.108;6.100;2022-07-21T00:00:26;8.50;;;4.88;;
55641;SDS011;41509;53.108;6.100;2022-07-21T00:02:53;7.38;;;4.35;;
55641;SDS011;41509;53.108;6.100;2022-07-21T00:05:20;7.70;;;4.55;;
55641;SDS011;41509;53.108;6.100;2022-07-21T00:07:46;9.38;;;4.47;;
55641;SDS011;41509;53.108;6.100;2022-07-21T00:10:12;13.15;;;5.25;;
55641;SDS011;41509;53.108;6.100;2022-07-21T00:12:39;9.18;;;5.40;;
55641;SDS011;41509;53.108;6.100;2022-07-21T00:17:32;9.13;;;4.90;;
55641;SDS011;41509;53.108;6.100;2022-07-21T00:19:58;10.18;;;5.25;;
55641;SDS011;41509;53.108;6.100;2022-07-21T00:24:49;9.55;;;5.43;;
55641;SDS011;41509;53.108;6.100;2022-07-21T00:27:15;9.20;;;4.80;;
55641;SDS011;41509;53.108;6.100;2022-07-21T00:29:42;8.13;;;5.20;;
55641;SDS011;41509;53.108;6.100;2022-07-21T00:32:07;7.82;;;5.18;;
55641;SDS011;41509;53.108;6.100;2022-07-21T00:36:59;8.70;;;5.85;;
55641;SDS011;41509;53.108;6.100;2022-07-21T00:39:24;9.07;;;5.53;;
55641;SDS011;41509;53.108;6.100;2022-07-21T00:41:50;9.40;;;5.32;;
55641;SDS011;41509;53.108;6.100;2022-07-21T00:44:22;9.45;;;5.82;;
55641;SDS011;41509;53.108;6.100;2022-07-21T00:46:50;9.23;;;5.25;;
55641;SDS011;41509;53.108;6.100;2022-07-21T00:49:16;9.20;;;6.40;;
55641;SDS011;41509;53.108;6.100;2022-07-21T00:51:42;11.85;;;5.80;;
55641;SDS011;41509;53.108;6.100;2022-07-21T00:54:08;13.02;;;6.40;;
55641;SDS011;41509;53.108;6.100;2022-07-21T00:56:34;10.32;;;6.75;;
55641;SDS011;41509;53.108;6.100;2022-07-21T01:01:26;14.27;;;6.97;;
55641;SDS011;41509;53.108;6.100;2022-07-21T01:03:52;12.60;;;5.90;;
55641;SDS011;41509;53.108;6.100;2022-07-21T01:06:17;10.77;;;6.65;;
55641;SDS011;41509;53.108;6.100;2022-07-21T01:08:43;9.93;;;6.80;;
55641;SDS011;41509;53.108;6.100;2022-07-21T01:11:08;13.32;;;6.63;;
55641;SDS011;41509;53.108;6.100;2022-07-21T01:13:34;10.98;;;6.93;;
55641;SDS011;41509;53.108;6.100;2022-07-21T01:16:06;12.18;;;6.45;;
55641;SDS011;41509;53.108;6.100;2022-07-21T01:18:32;16.40;;;6.55;;
55641;SDS011;41509;53.108;6.100;2022-07-21T01:20:58;10.45;;;6.32;;
55641;SDS011;41509;53.108;6.100;2022-07-21T01:23:31;9.15;;;6.28;;
55641;SDS011;41509;53.108;6.100;2022-07-21T01:28:22;13.93;;;7.07;;
55641;SDS011;41509;53.108;6.100;2022-07-21T01:30:48;11.10;;;7.50;;
55641;SDS011;41509;53.108;6.100;2022-07-21T01:33:15;13.27;;;7.43;;
55641;SDS011;41509;53.108;6.100;2022-07-21T01:35:41;12.07;;;7.03;;
55641;SDS011;41509;53.108;6.100;2022-07-21T01:38:07;14.18;;;7.50;;
55641;SDS011;41509;53.108;6.100;2022-07-21T01:40:59;10.80;;;7.22;;
55641;SDS011;41509;53.108;6.100;2022-07-21T01:43:43;11.80;;;7.45;;
55641;SDS011;41509;53.108;6.100;2022-07-21T01:46:12;12.00;;;7.75;;
55641;SDS011;41509;53.108;6.100;2022-07-21T01:48:42;15.27;;;8.00;;
55641;SDS011;41509;53.108;6.100;2022-07-21T01:51:08;13.63;;;8.65;;
55641;SDS011;41509;53.108;6.100;2022-07-21T01:53:34;14.50;;;7.45;;
55641;SDS011;41509;53.108;6.100;2022-07-21T01:56:00;12.82;;;8.18;;
55641;SDS011;41509;53.108;6.100;2022-07-21T01:58:25;11.85;;;7.93;;
55641;SDS011;41509;53.108;6.100;2022-07-21T02:00:51;12.02;;;8.02;;
55641;SDS011;41509;53.108;6.100;2022-07-21T02:03:17;12.65;;;7.78;;
55641;SDS011;41509;53.108;6.100;2022-07-21T02:05:42;15.13;;;8.15;;
55641;SDS011;41509;53.108;6.100;2022-07-21T02:08:08;14.13;;;8.23;;
55641;SDS011;41509;53.108;6.100;2022-07-21T02:10:33;12.32;;;7.95;;
55641;SDS011;41509;53.108;6.100;2022-07-21T02:13:00;15.32;;;8.15;;
55641;SDS011;41509;53.108;6.100;2022-07-21T02:15:28;14.30;;;8.57;;
55641;SDS011;41509;53.108;6.100;2022-07-21T02:17:54;15.00;;;8.27;;
55641;SDS011;41509;53.108;6.100;2022-07-21T02:20:19;12.93;;;8.20;;
55641;SDS011;41509;53.108;6.100;2022-07-21T02:22:45;13.82;;;8.15;;
55641;SDS011;41509;53.108;6.100;2022-07-21T02:25:12;15.65;;;7.72;;
55641;SDS011;41509;53.108;6.100;2022-07-21T02:30:03;13.00;;;8.10;;
55641;SDS011;41509;53.108;6.100;2022-07-21T02:34:55;16.00;;;7.80;;
55641;SDS011;41509;53.108;6.100;2022-07-21T02:37:21;12.05;;;7.63;;
55641;SDS011;41509;53.108;6.100;2022-07-21T02:39:47;14.35;;;7.95;;
55641;SDS011;41509;53.108;6.100;2022-07-21T02:44:39;14.10;;;8.10;;
55641;SDS011;41509;53.108;6.100;2022-07-21T02:47:05;16.15;;;8.88;;
55641;SDS011;41509;53.108;6.100;2022-07-21T02:49:31;13.98;;;8.63;;
55641;SDS011;41509;53.108;6.100;2022-07-21T02:51:56;12.27;;;7.70;;
55641;SDS011;41509;53.108;6.100;2022-07-21T02:54:22;13.43;;;8.50;;
55641;SDS011;41509;53.108;6.100;2022-07-21T02:56:48;14.65;;;8.48;;
55641;SDS011;41509;53.108;6.100;2022-07-21T02:59:13;18.48;;;9.45;;
55641;SDS011;41509;53.108;6.100;2022-07-21T03:01:39;14.35;;;8.13;;
55641;SDS011;41509;53.108;6.100;2022-07-21T03:04:05;14.40;;;9.18;;
55641;SDS011;41509;53.108;6.100;2022-07-21T03:06:31;14.52;;;8.50;;
55641;SDS011;41509;53.108;6.100;2022-07-21T03:08:57;14.30;;;8.20;;
55641;SDS011;41509;53.108;6.100;2022-07-21T03:11:23;14.20;;;8.70;;
55641;SDS011;41509;53.108;6.100;2022-07-21T03:13:49;14.63;;;8.20;;
55641;SDS011;41509;53.108;6.100;2022-07-21T03:16:15;12.55;;;8.13;;
55641;SDS011;41509;53.108;6.100;2022-07-21T03:18:41;12.85;;;8.85;;
55641;SDS011;41509;53.108;6.100;2022-07-21T03:21:07;11.63;;;8.10;;
55641;SDS011;41509;53.108;6.100;2022-07-21T03:23:33;12.57;;;7.97;;
55641;SDS011;41509;53.108;6.100;2022-07-21T03:25:58;16.55;;;8.48;;
55641;SDS011;41509;53.108;6.100;2022-07-21T03:28:24;15.77;;;9.23;;
55641;SDS011;41509;53.108;6.100;2022-07-21T03:30:50;15.13;;;8.07;;
55641;SDS011;41509;53.108;6.100;2022-07-21T03:33:15;16.75;;;9.23;;
55641;SDS011;41509;53.108;6.100;2022-07-21T03:35:41;15.73;;;9.30;;
55641;SDS011;41509;53.108;6.100;2022-07-21T03:38:07;16.88;;;9.52;;
55641;SDS011;41509;53.108;6.100;2022-07-21T03:40:34;15.18;;;9.43;;
55641;SDS011;41509;53.108;6.100;2022-07-21T03:43:02;16.40;;;9.98;;
55641;SDS011;41509;53.108;6.100;2022-07-21T03:45:30;16.08;;;9.30;;
55641;SDS011;41509;53.108;6.100;2022-07-21T03:47:57;15.30;;;9.65;;
55641;SDS011;41509;53.108;6.100;2022-07-21T03:50:24;13.88;;;9.15;;
55641;SDS011;41509;53.108;6.100;2022-07-21T03:52:51;14.38;;;10.00;;
55641;SDS011;41509;53.108;6.100;2022-07-21T03:55:19;15.27;;;10.27;;
55641;SDS011;41509;53.108;6.100;2022-07-21T03:58:06;17.75;;;10.13;;
55641;SDS011;41509;53.108;6.100;2022-07-21T04:00:34;15.77;;;9.82;;
55641;SDS011;41509;53.108;6.100;2022-07-21T04:03:07;15.98;;;9.77;;
55641;SDS011;41509;53.108;6.100;2022-07-21T04:05:34;19.90;;;11.43;;
55641;SDS011;41509;53.108;6.100;2022-07-21T04:08:01;18.35;;;11.27;;
55641;SDS011;41509;53.108;6.100;2022-07-21T04:10:30;14.80;;;10.15;;
55641;SDS011;41509;53.108;6.100;2022-07-21T04:12:57;17.20;;;10.18;;
55641;SDS011;41509;53.108;6.100;2022-07-21T04:15:24;17.42;;;10.95;;
55641;SDS011;41509;53.108;6.100;2022-07-21T04:17:50;13.85;;;9.75;;
55641;SDS011;41509;53.108;6.100;2022-07-21T04:20:16;14.88;;;9.30;;
55641;SDS011;41509;53.108;6.100;2022-07-21T04:22:42;13.13;;;9.25;;
55641;SDS011;41509;53.108;6.100;2022-07-21T04:25:09;13.82;;;9.63;;
55641;SDS011;41509;53.108;6.100;2022-07-21T04:27:35;18.63;;;10.35;;
55641;SDS011;41509;53.108;6.100;2022-07-21T04:30:02;14.05;;;8.60;;
55641;SDS011;41509;53.108;6.100;2022-07-21T04:32:29;13.20;;;8.60;;
55641;SDS011;41509;53.108;6.100;2022-07-21T04:34:54;12.27;;;8.63;;
55641;SDS011;41509;53.108;6.100;2022-07-21T04:37:20;14.43;;;9.57;;
55641;SDS011;41509;53.108;6.100;2022-07-21T04:39:45;14.23;;;9.18;;
55641;SDS011;41509;53.108;6.100;2022-07-21T04:42:11;15.10;;;9.10;;
55641;SDS011;41509;53.108;6.100;2022-07-21T04:44:37;14.40;;;9.50;;
55641;SDS011;41509;53.108;6.100;2022-07-21T04:47:02;14.77;;;9.27;;
55641;SDS011;41509;53.108;6.100;2022-07-21T04:49:28;13.43;;;8.88;;
55641;SDS011;41509;53.108;6.100;2022-07-21T04:51:54;12.63;;;8.73;;
55641;SDS011;41509;53.108;6.100;2022-07-21T04:54:19;15.68;;;9.27;;
55641;SDS011;41509;53.108;6.100;2022-07-21T04:56:45;14.23;;;9.10;;
55641;SDS011;41509;53.108;6.100;2022-07-21T04:59:10;16.10;;;9.55;;
55641;SDS011;41509;53.108;6.100;2022-07-21T05:01:39;20.40;;;10.88;;
55641;SDS011;41509;53.108;6.100;2022-07-21T05:04:05;15.50;;;9.32;;
55641;SDS011;41509;53.108;6.100;2022-07-21T05:08:56;13.65;;;8.68;;
55641;SDS011;41509;53.108;6.100;2022-07-21T05:11:22;15.50;;;9.48;;
55641;SDS011;41509;53.108;6.100;2022-07-21T05:13:48;20.55;;;10.77;;
55641;SDS011;41509;53.108;6.100;2022-07-21T05:16:14;15.55;;;11.00;;
55641;SDS011;41509;53.108;6.100;2022-07-21T05:18:40;14.93;;;9.57;;
55641;SDS011;41509;53.108;6.100;2022-07-21T05:21:05;15.63;;;10.25;;
55641;SDS011;41509;53.108;6.100;2022-07-21T05:23:31;17.20;;;9.45;;
55641;SDS011;41509;53.108;6.100;2022-07-21T05:25:57;18.23;;;9.80;;
55641;SDS011;41509;53.108;6.100;2022-07-21T05:28:22;14.02;;;9.68;;
55641;SDS011;41509;53.108;6.100;2022-07-21T05:30:48;16.70;;;9.77;;
55641;SDS011;41509;53.108;6.100;2022-07-21T05:33:14;15.77;;;9.73;;
55641;SDS011;41509;53.108;6.100;2022-07-21T05:35:39;14.52;;;9.75;;
55641;SDS011;41509;53.108;6.100;2022-07-21T05:38:05;16.38;;;10.10;;
55641;SDS011;41509;53.108;6.100;2022-07-21T05:40:31;18.02;;;9.88;;
55641;SDS011;41509;53.108;6.100;2022-07-21T05:42:57;14.90;;;9.85;;
55641;SDS011;41509;53.108;6.100;2022-07-21T05:45:23;14.40;;;9.57;;
55641;SDS011;41509;53.108;6.100;2022-07-21T05:47:51;16.90;;;10.10;;
55641;SDS011;41509;53.108;6.100;2022-07-21T05:50:17;13.93;;;9.35;;
55641;SDS011;41509;53.108;6.100;2022-07-21T05:52:42;14.85;;;9.63;;
55641;SDS011;41509;53.108;6.100;2022-07-21T05:55:08;13.88;;;9.43;;
55641;SDS011;41509;53.108;6.100;2022-07-21T05:57:35;16.65;;;9.82;;
55641;SDS011;41509;53.108;6.100;2022-07-21T06:00:02;17.65;;;10.57;;
55641;SDS011;41509;53.108;6.100;2022-07-21T06:02:29;15.18;;;10.00;;
55641;SDS011;41509;53.108;6.100;2022-07-21T06:04:56;15.25;;;10.05;;
55641;SDS011;41509;53.108;6.100;2022-07-21T06:07:21;17.10;;;9.68;;
55641;SDS011;41509;53.108;6.100;2022-07-21T06:09:47;15.07;;;10.00;;
55641;SDS011;41509;53.108;6.100;2022-07-21T06:12:13;15.27;;;10.68;;
55641;SDS011;41509;53.108;6.100;2022-07-21T06:14:38;17.75;;;10.73;;
55641;SDS011;41509;53.108;6.100;2022-07-21T06:17:04;15.80;;;9.52;;
55641;SDS011;41509;53.108;6.100;2022-07-21T06:19:30;17.48;;;10.18;;
55641;SDS011;41509;53.108;6.100;2022-07-21T06:24:22;14.93;;;9.00;;
55641;SDS011;41509;53.108;6.100;2022-07-21T06:26:48;16.88;;;10.85;;
55641;SDS011;41509;53.108;6.100;2022-07-21T06:31:39;17.05;;;10.57;;
55641;SDS011;41509;53.108;6.100;2022-07-21T06:34:05;18.13;;;10.77;;
55641;SDS011;41509;53.108;6.100;2022-07-21T06:36:31;17.42;;;11.73;;
55641;SDS011;41509;53.108;6.100;2022-07-21T06:41:24;18.20;;;10.95;;
55641;SDS011;41509;53.108;6.100;2022-07-21T06:43:50;15.95;;;10.57;;
55641;SDS011;41509;53.108;6.100;2022-07-21T06:46:15;16.40;;;11.10;;
55641;SDS011;41509;53.108;6.100;2022-07-21T06:48:41;17.00;;;11.25;;
55641;SDS011;41509;53.108;6.100;2022-07-21T06:51:07;16.48;;;10.77;;
55641;SDS011;41509;53.108;6.100;2022-07-21T06:53:32;19.02;;;12.43;;
55641;SDS011;41509;53.108;6.100;2022-07-21T06:55:58;15.63;;;11.25;;
55641;SDS011;41509;53.108;6.100;2022-07-21T06:58:23;18.35;;;11.40;;
55641;SDS011;41509;53.108;6.100;2022-07-21T07:00:50;18.90;;;12.07;;
55641;SDS011;41509;53.108;6.100;2022-07-21T07:03:16;18.05;;;12.07;;
55641;SDS011;41509;53.108;6.100;2022-07-21T07:05:43;18.95;;;10.75;;
55641;SDS011;41509;53.108;6.100;2022-07-21T07:08:10;17.63;;;10.85;;
55641;SDS011;41509;53.108;6.100;2022-07-21T07:10:36;17.63;;;11.27;;
55641;SDS011;41509;53.108;6.100;2022-07-21T07:13:02;16.38;;;11.27;;
55641;SDS011;41509;53.108;6.100;2022-07-21T07:15:28;17.60;;;11.93;;
55641;SDS011;41509;53.108;6.100;2022-07-21T07:17:54;19.52;;;12.43;;
55641;SDS011;41509;53.108;6.100;2022-07-21T07:20:20;19.58;;;11.90;;
55641;SDS011;41509;53.108;6.100;2022-07-21T07:22:47;17.83;;;12.07;;
55641;SDS011;41509;53.108;6.100;2022-07-21T07:27:42;20.25;;;12.13;;
55641;SDS011;41509;53.108;6.100;2022-07-21T07:30:12;19.15;;;12.43;;
55641;SDS011;41509;53.108;6.100;2022-07-21T07:32:38;19.63;;;12.00;;
55641;SDS011;41509;53.108;6.100;2022-07-21T07:35:05;19.35;;;12.77;;
55641;SDS011;41509;53.108;6.100;2022-07-21T07:37:33;18.20;;;12.52;;
55641;SDS011;41509;53.108;6.100;2022-07-21T07:40:00;19.20;;;12.57;;
55641;SDS011;41509;53.108;6.100;2022-07-21T07:42:27;19.73;;;12.30;;
55641;SDS011;41509;53.108;6.100;2022-07-21T07:44:53;20.50;;;13.48;;
55641;SDS011;41509;53.108;6.100;2022-07-21T07:47:18;20.27;;;12.63;;
55641;SDS011;41509;53.108;6.100;2022-07-21T07:49:44;22.48;;;13.05;;
55641;SDS011;41509;53.108;6.100;2022-07-21T07:52:09;19.52;;;12.48;;
55641;SDS011;41509;53.108;6.100;2022-07-21T07:54:35;20.23;;;13.38;;
55641;SDS011;41509;53.108;6.100;2022-07-21T07:57:01;21.88;;;13.82;;
55641;SDS011;41509;53.108;6.100;2022-07-21T07:59:27;22.00;;;14.65;;
55641;SDS011;41509;53.108;6.100;2022-07-21T08:01:52;22.70;;;14.88;;
55641;SDS011;41509;53.108;6.100;2022-07-21T08:04:18;20.10;;;13.43;;
55641;SDS011;41509;53.108;6.100;2022-07-21T08:06:43;21.92;;;13.50;;
55641;SDS011;41509;53.108;6.100;2022-07-21T08:09:09;22.75;;;13.75;;
55641;SDS011;41509;53.108;6.100;2022-07-21T08:11:35;18.10;;;12.77;;
55641;SDS011;41509;53.108;6.100;2022-07-21T08:14:00;18.48;;;12.70;;
55641;SDS011;41509;53.108;6.100;2022-07-21T08:16:26;23.20;;;13.35;;
55641;SDS011;41509;53.108;6.100;2022-07-21T08:18:52;24.02;;;13.45;;
55641;SDS011;41509;53.108;6.100;2022-07-21T08:21:18;19.75;;;13.02;;
55641;SDS011;41509;53.108;6.100;2022-07-21T08:23:43;20.17;;;13.38;;
55641;SDS011;41509;53.108;6.100;2022-07-21T08:26:09;26.52;;;13.50;;
55641;SDS011;41509;53.108;6.100;2022-07-21T08:28:35;21.38;;;13.45;;
55641;SDS011;41509;53.108;6.100;2022-07-21T08:31:00;24.17;;;14.55;;
55641;SDS011;41509;53.108;6.100;2022-07-21T08:33:26;22.25;;;12.98;;
55641;SDS011;41509;53.108;6.100;2022-07-21T08:35:51;21.02;;;13.82;;
55641;SDS011;41509;53.108;6.100;2022-07-21T08:38:19;23.42;;;13.77;;
55641;SDS011;41509;53.108;6.100;2022-07-21T08:40:45;24.45;;;14.95;;
55641;SDS011;41509;53.108;6.100;2022-07-21T08:45:38;21.75;;;13.52;;
55641;SDS011;41509;53.108;6.100;2022-07-21T08:48:05;21.10;;;13.75;;
55641;SDS011;41509;53.108;6.100;2022-07-21T08:50:32;24.75;;;15.20;;
55641;SDS011;41509;53.108;6.100;2022-07-21T08:53:00;25.52;;;15.30;;
55641;SDS011;41509;53.108;6.100;2022-07-21T08:55:30;25.92;;;16.30;;
55641;SDS011;41509;53.108;6.100;2022-07-21T08:57:56;25.25;;;16.08;;
55641;SDS011;41509;53.108;6.100;2022-07-21T09:00:22;27.10;;;16.63;;
55641;SDS011;41509;53.108;6.100;2022-07-21T09:02:48;25.60;;;15.30;;
55641;SDS011;41509;53.108;6.100;2022-07-21T09:05:13;28.63;;;17.67;;
55641;SDS011;41509;53.108;6.100;2022-07-21T09:07:49;27.55;;;17.50;;
55641;SDS011;41509;53.108;6.100;2022-07-21T09:10:20;29.20;;;18.10;;
55641;SDS011;41509;53.108;6.100;2022-07-21T09:12:48;29.98;;;17.08;;
55641;SDS011;41509;53.108;6.100;2022-07-21T09:15:16;30.23;;;18.65;;
55641;SDS011;41509;53.108;6.100;2022-07-21T09:17:44;33.90;;;19.27;;
55641;SDS011;41509;53.108;6.100;2022-07-21T09:20:25;33.45;;;20.67;;
55641;SDS011;41509;53.108;6.100;2022-07-21T09:25:34;32.92;;;20.98;;
55641;SDS011;41509;53.108;6.100;2022-07-21T09:31:02;36.88;;;21.13;;
55641;SDS011;41509;53.108;6.100;2022-07-21T09:33:32;33.03;;;19.50;;
55641;SDS011;41509;53.108;6.100;2022-07-21T09:36:20;33.03;;;20.40;;
55641;SDS011;41509;53.108;6.100;2022-07-21T09:38:52;34.22;;;20.17;;
55641;SDS011;41509;53.108;6.100;2022-07-21T09:41:23;35.72;;;21.27;;
55641;SDS011;41509;53.108;6.100;2022-07-21T09:43:51;34.78;;;21.10;;
55641;SDS011;41509;53.108;6.100;2022-07-21T09:46:21;35.72;;;20.98;;
55641;SDS011;41509;53.108;6.100;2022-07-21T09:48:50;37.47;;;22.35;;
55641;SDS011;41509;53.108;6.100;2022-07-21T09:51:21;35.15;;;21.02;;
55641;SDS011;41509;53.108;6.100;2022-07-21T09:53:49;30.00;;;18.88;;
55641;SDS011;41509;53.108;6.100;2022-07-21T09:56:35;25.45;;;16.45;;
55641;SDS011;41509;53.108;6.100;2022-07-21T09:59:05;23.42;;;14.50;;
55641;SDS011;41509;53.108;6.100;2022-07-21T10:01:32;25.30;;;14.68;;
55641;SDS011;41509;53.108;6.100;2022-07-21T10:06:25;24.07;;;15.10;;
55641;SDS011;41509;53.108;6.100;2022-07-21T10:08:53;23.45;;;14.13;;
55641;SDS011;41509;53.108;6.100;2022-07-21T10:11:20;23.98;;;14.88;;
55641;SDS011;41509;53.108;6.100;2022-07-21T10:13:46;19.10;;;12.80;;
55641;SDS011;41509;53.108;6.100;2022-07-21T10:16:13;19.95;;;12.98;;
55641;SDS011;41509;53.108;6.100;2022-07-21T10:24:23;10.90;;;7.43;;
55641;SDS011;41509;53.108;6.100;2022-07-21T10:32:20;10.70;;;7.20;;
55641;SDS011;41509;53.108;6.100;2022-07-21T10:34:48;9.60;;;6.30;;
55641;SDS011;41509;53.108;6.100;2022-07-21T10:39:58;9.00;;;6.30;;
55641;SDS011;41509;53.108;6.100;2022-07-21T10:42:24;8.82;;;6.55;;
55641;SDS011;41509;53.108;6.100;2022-07-21T10:44:49;9.75;;;6.88;;
55641;SDS011;41509;53.108;6.100;2022-07-21T10:47:16;13.63;;;7.75;;
55641;SDS011;41509;53.108;6.100;2022-07-21T10:49:58;10.75;;;7.03;;
55641;SDS011;41509;53.108;6.100;2022-07-21T10:57:39;11.32;;;7.95;;
55641;SDS011;41509;53.108;6.100;2022-07-21T11:00:43;12.77;;;7.75;;
55641;SDS011;41509;53.108;6.100;2022-07-21T11:03:01;13.63;;;8.18;;
55641;SDS011;41509;53.108;6.100;2022-07-21T11:08:47;14.20;;;7.88;;
55641;SDS011;41509;53.108;6.100;2022-07-21T11:11:21;14.13;;;8.77;;
55641;SDS011;41509;53.108;6.100;2022-07-21T11:13:57;11.93;;;7.90;;
55641;SDS011;41509;53.108;6.100;2022-07-21T11:22:15;9.77;;;6.85;;
55641;SDS011;41509;53.108;6.100;2022-07-21T11:24:58;11.05;;;7.10;;
55641;SDS011;41509;53.108;6.100;2022-07-21T11:27:28;10.90;;;7.78;;
55641;SDS011;41509;53.108;6.100;2022-07-21T11:29:56;12.85;;;8.02;;
55641;SDS011;41509;53.108;6.100;2022-07-21T11:32:25;11.15;;;6.97;;
55641;SDS011;41509;53.108;6.100;2022-07-21T11:34:52;13.23;;;8.20;;
55641;SDS011;41509;53.108;6.100;2022-07-21T11:37:29;11.68;;;7.78;;
55641;SDS011;41509;53.108;6.100;2022-07-21T11:40:04;13.98;;;8.05;;
55641;SDS011;41509;53.108;6.100;2022-07-21T11:42:30;11.38;;;7.63;;
55641;SDS011;41509;53.108;6.100;2022-07-21T11:44:56;11.32;;;8.18;;
55641;SDS011;41509;53.108;6.100;2022-07-21T11:47:23;14.00;;;8.73;;
55641;SDS011;41509;53.108;6.100;2022-07-21T11:49:56;11.82;;;8.23;;
55641;SDS011;41509;53.108;6.100;2022-07-21T11:52:27;8.27;;;5.18;;
55641;SDS011;41509;53.108;6.100;2022-07-21T11:54:57;6.30;;;4.30;;
55641;SDS011;41509;53.108;6.100;2022-07-21T11:57:24;4.88;;;3.20;;
55641;SDS011;41509;53.108;6.100;2022-07-21T11:59:51;5.55;;;3.70;;
55641;SDS011;41509;53.108;6.100;2022-07-21T12:02:18;5.55;;;3.70;;
55641;SDS011;41509;53.108;6.100;2022-07-21T12:04:49;6.95;;;4.50;;
55641;SDS011;41509;53.108;6.100;2022-07-21T12:09:44;5.85;;;4.18;;
55641;SDS011;41509;53.108;6.100;2022-07-21T12:12:12;8.98;;;4.65;;
55641;SDS011;41509;53.108;6.100;2022-07-21T12:14:48;6.85;;;3.72;;
55641;SDS011;41509;53.108;6.100;2022-07-21T12:17:31;4.30;;;3.15;;
55641;SDS011;41509;53.108;6.100;2022-07-21T12:20:02;4.03;;;2.90;;
55641;SDS011;41509;53.108;6.100;2022-07-21T12:22:37;4.10;;;2.65;;
55641;SDS011;41509;53.108;6.100;2022-07-21T12:25:04;5.03;;;3.20;;
55641;SDS011;41509;53.108;6.100;2022-07-21T12:27:33;3.50;;;2.47;;
55641;SDS011;41509;53.108;6.100;2022-07-21T12:30:00;4.32;;;2.20;;
55641;SDS011;41509;53.108;6.100;2022-07-21T12:35:16;3.05;;;2.15;;
55641;SDS011;41509;53.108;6.100;2022-07-21T12:40:28;3.30;;;1.95;;
55641;SDS011;41509;53.108;6.100;2022-07-21T12:43:05;2.72;;;1.98;;
55641;SDS011;41509;53.108;6.100;2022-07-21T12:45:32;2.67;;;1.77;;
55641;SDS011;41509;53.108;6.100;2022-07-21T12:48:13;2.53;;;1.50;;
55641;SDS011;41509;53.108;6.100;2022-07-21T12:50:41;2.42;;;1.52;;
55641;SDS011;41509;53.108;6.100;2022-07-21T12:53:10;2.40;;;1.70;;
55641;SDS011;41509;53.108;6.100;2022-07-21T12:55:36;2.28;;;1.40;;
55641;SDS011;41509;53.108;6.100;2022-07-21T12:58:03;2.03;;;1.25;;
55641;SDS011;41509;53.108;6.100;2022-07-21T13:00:30;2.60;;;1.80;;
55641;SDS011;41509;53.108;6.100;2022-07-21T13:02:57;2.35;;;1.27;;
55641;SDS011;41509;53.108;6.100;2022-07-21T13:05:23;2.90;;;1.70;;
55641;SDS011;41509;53.108;6.100;2022-07-21T13:07:50;2.30;;;1.30;;
55641;SDS011;41509;53.108;6.100;2022-07-21T13:10:16;1.92;;;1.27;;
55641;SDS011;41509;53.108;6.100;2022-07-21T13:12:42;2.40;;;1.35;;
55641;SDS011;41509;53.108;6.100;2022-07-21T13:15:08;2.80;;;1.80;;
55641;SDS011;41509;53.108;6.100;2022-07-21T13:17:34;3.47;;;1.92;;
55641;SDS011;41509;53.108;6.100;2022-07-21T13:22:25;2.95;;;1.95;;
55641;SDS011;41509;53.108;6.100;2022-07-21T13:24:53;2.88;;;2.10;;
55641;SDS011;41509;53.108;6.100;2022-07-21T13:27:19;2.78;;;1.90;;
55641;SDS011;41509;53.108;6.100;2022-07-21T13:29:44;3.30;;;2.17;;
55641;SDS011;41509;53.108;6.100;2022-07-21T13:32:10;4.25;;;2.53;;
55641;SDS011;41509;53.108;6.100;2022-07-21T13:34:36;3.90;;;2.70;;
55641;SDS011;41509;53.108;6.100;2022-07-21T13:37:01;5.10;;;2.90;;
55641;SDS011;41509;53.108;6.100;2022-07-21T13:39:27;4.00;;;2.80;;
55641;SDS011;41509;53.108;6.100;2022-07-21T13:41:54;4.60;;;3.20;;
55641;SDS011;41509;53.108;6.100;2022-07-21T13:44:20;4.35;;;3.25;;
55641;SDS011;41509;53.108;6.100;2022-07-21T13:46:45;5.82;;;3.50;;
55641;SDS011;41509;53.108;6.100;2022-07-21T13:49:11;5.80;;;3.25;;
55641;SDS011;41509;53.108;6.100;2022-07-21T13:51:36;4.32;;;3.00;;
55641;SDS011;41509;53.108;6.100;2022-07-21T13:54:02;4.85;;;3.50;;
55641;SDS011;41509;53.108;6.100;2022-07-21T13:56:28;5.68;;;3.67;;
55641;SDS011;41509;53.108;6.100;2022-07-21T13:58:54;5.68;;;2.97;;
55641;SDS011;41509;53.108;6.100;2022-07-21T14:01:20;5.55;;;4.03;;
55641;SDS011;41509;53.108;6.100;2022-07-21T14:03:46;5.93;;;4.00;;
55641;SDS011;41509;53.108;6.100;2022-07-21T14:06:12;6.18;;;3.85;;
55641;SDS011;41509;53.108;6.100;2022-07-21T14:08:38;5.38;;;3.88;;
55641;SDS011;41509;53.108;6.100;2022-07-21T14:11:05;5.88;;;4.00;;
55641;SDS011;41509;53.108;6.100;2022-07-21T14:13:31;7.00;;;3.78;;
55641;SDS011;41509;53.108;6.100;2022-07-21T14:15:57;5.18;;;3.83;;
55641;SDS011;41509;53.108;6.100;2022-07-21T14:18:22;7.75;;;3.55;;
55641;SDS011;41509;53.108;6.100;2022-07-21T14:20:48;8.38;;;4.60;;
55641;SDS011;41509;53.108;6.100;2022-07-21T14:23:17;4.68;;;3.65;;
55641;SDS011;41509;53.108;6.100;2022-07-21T14:25:44;8.02;;;4.40;;
55641;SDS011;41509;53.108;6.100;2022-07-21T14:28:11;5.70;;;4.00;;
55641;SDS011;41509;53.108;6.100;2022-07-21T14:30:36;6.03;;;4.32;;
55641;SDS011;41509;53.108;6.100;2022-07-21T14:33:02;6.85;;;4.38;;
55641;SDS011;41509;53.108;6.100;2022-07-21T14:35:27;6.05;;;3.70;;
55641;SDS011;41509;53.108;6.100;2022-07-21T14:37:53;6.95;;;4.63;;
55641;SDS011;41509;53.108;6.100;2022-07-21T14:40:19;7.05;;;4.28;;
55641;SDS011;41509;53.108;6.100;2022-07-21T14:42:46;6.53;;;4.47;;
55641;SDS011;41509;53.108;6.100;2022-07-21T14:45:14;8.23;;;4.50;;
55641;SDS011;41509;53.108;6.100;2022-07-21T14:47:40;7.47;;;4.03;;
55641;SDS011;41509;53.108;6.100;2022-07-21T14:52:31;7.05;;;3.97;;
55641;SDS011;41509;53.108;6.100;2022-07-21T14:54:57;6.05;;;3.50;;
55641;SDS011;41509;53.108;6.100;2022-07-21T14:57:23;8.20;;;4.22;;
55641;SDS011;41509;53.108;6.100;2022-07-21T15:02:15;5.30;;;3.67;;
55641;SDS011;41509;53.108;6.100;2022-07-21T15:07:06;6.35;;;4.00;;
55641;SDS011;41509;53.108;6.100;2022-07-21T15:09:33;7.45;;;4.43;;
55641;SDS011;41509;53.108;6.100;2022-07-21T15:11:59;5.30;;;3.83;;
55641;SDS011;41509;53.108;6.100;2022-07-21T15:14:25;5.97;;;4.13;;
55641;SDS011;41509;53.108;6.100;2022-07-21T15:19:16;6.82;;;4.85;;
55641;SDS011;41509;53.108;6.100;2022-07-21T15:21:42;8.40;;;4.55;;
55641;SDS011;41509;53.108;6.100;2022-07-21T15:24:09;7.60;;;5.13;;
55641;SDS011;41509;53.108;6.100;2022-07-21T15:29:00;7.45;;;4.55;;
55641;SDS011;41509;53.108;6.100;2022-07-21T15:31:29;6.28;;;4.38;;
55641;SDS011;41509;53.108;6.100;2022-07-21T15:33:56;6.25;;;4.10;;
55641;SDS011;41509;53.108;6.100;2022-07-21T15:36:22;9.18;;;4.68;;
55641;SDS011;41509;53.108;6.100;2022-07-21T15:38:47;5.75;;;3.70;;
55641;SDS011;41509;53.108;6.100;2022-07-21T15:41:13;6.22;;;3.20;;
55641;SDS011;41509;53.108;6.100;2022-07-21T15:43:40;6.20;;;2.75;;
55641;SDS011;41509;53.108;6.100;2022-07-21T15:46:06;6.93;;;4.05;;
55641;SDS011;41509;53.108;6.100;2022-07-21T15:48:31;6.75;;;3.10;;
55641;SDS011;41509;53.108;6.100;2022-07-21T15:50:57;4.05;;;2.45;;
55641;SDS011;41509;53.108;6.100;2022-07-21T15:53:22;5.00;;;2.30;;
55641;SDS011;41509;53.108;6.100;2022-07-21T15:55:48;5.25;;;2.38;;
55641;SDS011;41509;53.108;6.100;2022-07-21T15:58:13;4.75;;;2.10;;
55641;SDS011;41509;53.108;6.100;2022-07-21T16:00:39;4.05;;;2.10;;
55641;SDS011;41509;53.108;6.100;2022-07-21T16:03:05;4.55;;;1.73;;
55641;SDS011;41509;53.108;6.100;2022-07-21T16:05:30;7.60;;;2.72;;
55641;SDS011;41509;53.108;6.100;2022-07-21T16:07:56;6.75;;;2.08;;